Time;durP1;ratioP1;P1;durP2;ratioP2;P2;SDS_P1;SDS_P2;PMS_P1;PMS_P2;Temp;Humidity;BMP_temperature;BMP_pressure;BME280_temperature;BME280_humidity;BME280_pressure;Samples;Min_cycle;Max_cycle;Signal;HPM_P1;HPM_P2
2021/05/26 06:44:56;;;;;;;2.67;0.68;;;;;;;;;;6234790;22;20038;-51
2021/05/26 06:47:22;;;;;;;1.30;0.70;;;;;;;;;;6239609;23;20114;-55
2021/05/26 06:49:49;;;;;;;4.43;0.73;;;;;;;;;;6264294;22;20491;-47
2021/05/26 06:52:18;;;;;;;6.85;0.95;;;;;;;;;;6264585;22;20081;-49
2021/05/26 06:54:47;;;;;;;3.70;0.80;;;;;;;;;;6241128;23;20008;-59
2021/05/26 06:57:14;;;;;;;4.88;0.80;;;;;;;;;;6240430;22;20019;-48
2021/05/26 06:59:40;;;;;;;1.77;0.88;;;;;;;;;;6240724;22;20004;-48
2021/05/26 07:02:06;;;;;;;3.03;0.73;;;;;;;;;;6242129;23;20004;-47
2021/05/26 07:04:32;;;;;;;8.10;1.30;;;;;;;;;;6242965;23;20298;-44
2021/05/26 07:07:00;;;;;;;1.42;0.73;;;;;;;;;;6243364;23;20081;-47
2021/05/26 07:09:27;;;;;;;3.20;0.88;;;;;;;;;;6265654;22;20046;-47
2021/05/26 07:11:55;;;;;;;1.70;0.70;;;;;;;;;;6243320;23;20536;-45
2021/05/26 07:14:25;;;;;;;2.75;0.80;;;;;;;;;;6267347;22;20004;-46
2021/05/26 07:16:51;;;;;;;2.65;1.00;;;;;;;;;;6243129;22;20409;-47
2021/05/26 07:19:17;;;;;;;1.95;1.17;;;;;;;;;;6242726;23;20007;-50
2021/05/26 07:21:43;;;;;;;1.83;1.10;;;;;;;;;;6243619;23;20014;-47
2021/05/26 07:24:09;;;;;;;1.52;0.80;;;;;;;;;;6243383;23;20062;-47
2021/05/26 07:26:36;;;;;;;2.33;0.67;;;;;;;;;;6243262;23;20006;-46
2021/05/26 07:29:07;;;;;;;2.13;0.93;;;;;;;;;;6267164;22;20003;-48
2021/05/26 07:31:33;;;;;;;1.48;0.80;;;;;;;;;;6266026;22;20283;-49
2021/05/26 07:33:59;;;;;;;1.17;0.77;;;;;;;;;;6237833;23;20000;-46
2021/05/26 07:36:26;;;;;;;1.90;0.80;;;;;;;;;;6242216;23;20094;-47
2021/05/26 07:38:52;;;;;;;2.10;0.60;;;;;;;;;;6267060;22;20054;-48
2021/05/26 07:41:19;;;;;;;2.45;0.68;;;;;;;;;;6267636;22;20012;-50
2021/05/26 07:43:45;;;;;;;1.60;0.90;;;;;;;;;;6267415;22;20014;-45
2021/05/26 07:46:13;;;;;;;3.85;1.23;;;;;;;;;;6271207;22;20027;-47
2021/05/26 07:48:39;;;;;;;1.42;0.80;;;;;;;;;;6246783;22;20003;-48
2021/05/26 07:51:06;;;;;;;1.90;0.70;;;;;;;;;;6274227;22;20008;-50
2021/05/26 07:53:32;;;;;;;3.05;0.63;;;;;;;;;;6246410;22;20065;-49
2021/05/26 07:55:58;;;;;;;2.35;1.15;;;;;;;;;;6246361;22;20012;-49
2021/05/26 07:58:24;;;;;;;2.73;1.03;;;;;;;;;;6246672;22;20008;-53
2021/05/26 08:00:51;;;;;;;1.60;0.70;;;;;;;;;;6246184;22;20302;-47
2021/05/26 08:03:17;;;;;;;2.40;0.90;;;;;;;;;;6246482;22;20000;-48
2021/05/26 08:05:43;;;;;;;1.48;0.80;;;;;;;;;;6274000;22;20264;-47
2021/05/26 08:08:09;;;;;;;1.92;1.00;;;;;;;;;;6273502;22;20007;-49
2021/05/26 08:10:35;;;;;;;1.17;0.65;;;;;;;;;;6273617;22;20004;-48
2021/05/26 08:13:01;;;;;;;3.53;0.88;;;;;;;;;;6246906;22;20000;-48
2021/05/26 08:15:27;;;;;;;1.80;0.60;;;;;;;;;;6273185;22;19996;-47
2021/05/26 08:17:53;;;;;;;1.77;0.70;;;;;;;;;;6246232;22;20004;-48
2021/05/26 08:20:19;;;;;;;1.15;0.70;;;;;;;;;;6274546;22;20000;-48
2021/05/26 08:22:45;;;;;;;2.28;0.70;;;;;;;;;;6273972;22;20440;-46
2021/05/26 08:25:12;;;;;;;1.60;0.80;;;;;;;;;;6274530;22;20004;-50
2021/05/26 08:27:38;;;;;;;1.02;0.60;;;;;;;;;;6247116;22;20449;-54
2021/05/26 08:30:05;;;;;;;2.30;0.68;;;;;;;;;;6272837;22;20019;-47
2021/05/26 08:32:32;;;;;;;1.98;0.70;;;;;;;;;;6245847;22;20003;-48
2021/05/26 08:34:58;;;;;;;1.17;0.70;;;;;;;;;;6273056;22;20419;-50
2021/05/26 08:37:24;;;;;;;1.48;1.00;;;;;;;;;;6273079;22;20004;-47
2021/05/26 08:39:50;;;;;;;1.67;0.82;;;;;;;;;;6245708;22;20328;-48
2021/05/26 08:42:17;;;;;;;1.40;0.80;;;;;;;;;;6272821;22;20353;-45
2021/05/26 08:44:44;;;;;;;1.85;0.93;;;;;;;;;;6272065;22;20081;-46
2021/05/26 08:47:15;;;;;;;1.48;0.90;;;;;;;;;;6245264;22;20007;-48
2021/05/26 08:49:43;;;;;;;1.83;0.95;;;;;;;;;;6272643;22;20082;-46
2021/05/26 08:52:09;;;;;;;1.23;0.70;;;;;;;;;;6245005;22;20049;-47
2021/05/26 08:54:35;;;;;;;1.48;0.85;;;;;;;;;;6272551;22;20004;-45
2021/05/26 08:57:01;;;;;;;2.03;0.90;;;;;;;;;;6272580;22;20363;-47
2021/05/26 08:59:27;;;;;;;2.08;0.82;;;;;;;;;;6272041;22;20027;-46
2021/05/26 09:01:54;;;;;;;1.42;0.80;;;;;;;;;;6272218;22;20019;-45
2021/05/26 09:04:28;;;;;;;1.77;0.70;;;;;;;;;;6272071;22;20007;-46
2021/05/26 09:07:12;;;;;;;1.25;0.60;;;;;;;;;;6244970;22;20003;-47
2021/05/26 09:09:54;;;;;;;1.67;0.80;;;;;;;;;;6245466;22;20061;-49
2021/05/26 09:12:25;;;;;;;2.17;0.95;;;;;;;;;;6272354;22;19996;-46
2021/05/26 09:14:51;;;;;;;1.38;0.70;;;;;;;;;;6245067;22;20738;-51
2021/05/26 09:17:17;;;;;;;1.10;0.60;;;;;;;;;;6271938;22;20087;-46
2021/05/26 09:19:43;;;;;;;2.33;0.80;;;;;;;;;;6272184;22;20100;-49
2021/05/26 09:22:10;;;;;;;1.42;0.63;;;;;;;;;;6244021;22;20293;-47
2021/05/26 09:24:36;;;;;;;1.10;0.60;;;;;;;;;;6271312;22;20003;-46
2021/05/26 09:27:08;;;;;;;1.40;0.60;;;;;;;;;;6245107;22;20003;-44
2021/05/26 09:29:47;;;;;;;0.90;0.60;;;;;;;;;;6271947;22;20000;-56
2021/05/26 09:32:20;;;;;;;1.75;0.70;;;;;;;;;;6244993;22;20081;-45
2021/05/26 09:34:47;;;;;;;1.08;0.57;;;;;;;;;;6272008;22;20417;-47
2021/05/26 09:37:21;;;;;;;2.67;0.80;;;;;;;;;;6244898;22;20031;-46
2021/05/26 09:39:49;;;;;;;1.90;0.70;;;;;;;;;;6245277;22;20034;-46
2021/05/26 09:42:25;;;;;;;1.23;0.63;;;;;;;;;;6244788;22;20090;-46
2021/05/26 09:45:11;;;;;;;2.05;0.60;;;;;;;;;;6242446;22;20458;-50
2021/05/26 09:47:40;;;;;;;1.92;0.90;;;;;;;;;;6269563;22;20074;-46
2021/05/26 09:50:19;;;;;;;1.05;0.70;;;;;;;;;;6270437;22;20019;-46
2021/05/26 09:52:51;;;;;;;1.38;0.80;;;;;;;;;;6271301;22;20326;-48
2021/05/26 09:55:21;;;;;;;1.67;0.60;;;;;;;;;;6271241;22;19996;-46
2021/05/26 09:57:50;;;;;;;1.08;0.60;;;;;;;;;;6243838;22;20004;-52
2021/05/26 10:00:16;;;;;;;1.17;0.60;;;;;;;;;;6244124;22;20034;-51
2021/05/26 10:02:42;;;;;;;1.00;0.47;;;;;;;;;;6242821;22;20019;-50
2021/05/26 10:05:09;;;;;;;0.98;0.68;;;;;;;;;;6271520;22;20106;-50
2021/05/26 10:07:35;;;;;;;1.13;0.50;;;;;;;;;;6244035;22;20448;-48
2021/05/26 10:10:02;;;;;;;1.05;0.55;;;;;;;;;;6243690;22;20026;-49
2021/05/26 10:12:31;;;;;;;2.00;0.68;;;;;;;;;;6270490;22;20027;-44
2021/05/26 10:14:59;;;;;;;1.10;0.55;;;;;;;;;;6269840;22;20095;-47
2021/05/26 10:17:33;;;;;;;0.98;0.50;;;;;;;;;;6218343;22;20082;-49
2021/05/26 10:19:59;;;;;;;0.90;0.65;;;;;;;;;;6241869;22;20055;-51
2021/05/26 10:22:27;;;;;;;1.35;0.57;;;;;;;;;;6269608;22;20105;-50
2021/05/26 10:24:54;;;;;;;1.13;0.60;;;;;;;;;;6243387;22;19999;-50
2021/05/26 10:27:33;;;;;;;1.43;0.57;;;;;;;;;;6243016;22;20113;-48
2021/05/26 10:30:01;;;;;;;1.35;0.60;;;;;;;;;;6270725;22;20095;-52
2021/05/26 10:32:29;;;;;;;0.60;0.40;;;;;;;;;;6270289;22;20125;-53
2021/05/26 10:34:55;;;;;;;1.13;0.60;;;;;;;;;;6219963;22;20010;-51
2021/05/26 10:37:29;;;;;;;1.30;0.60;;;;;;;;;;6272452;22;20011;-52
2021/05/26 10:39:56;;;;;;;1.13;0.50;;;;;;;;;;6246055;22;20020;-49
2021/05/26 10:42:26;;;;;;;1.20;0.67;;;;;;;;;;6244619;22;20066;-50
2021/05/26 10:45:04;;;;;;;1.10;0.60;;;;;;;;;;6244742;22;20027;-51
2021/05/26 10:47:37;;;;;;;1.27;0.60;;;;;;;;;;6245085;22;20038;-49
2021/05/26 10:50:14;;;;;;;0.73;0.50;;;;;;;;;;6244978;22;20057;-51
2021/05/26 10:52:55;;;;;;;1.10;0.50;;;;;;;;;;6272831;22;19996;-51
2021/05/26 10:55:30;;;;;;;1.17;0.43;;;;;;;;;;6273630;22;20010;-52
2021/05/26 10:58:13;;;;;;;1.17;0.57;;;;;;;;;;6272720;22;19999;-50
2021/05/26 11:00:42;;;;;;;1.33;0.55;;;;;;;;;;6272054;22;20015;-49
2021/05/26 11:03:27;;;;;;;1.42;0.68;;;;;;;;;;6244839;22;20332;-49
2021/05/26 11:05:54;;;;;;;1.15;0.60;;;;;;;;;;6272029;22;20425;-49
2021/05/26 11:08:30;;;;;;;0.73;0.45;;;;;;;;;;6244932;22;20442;-50
2021/05/26 11:10:56;;;;;;;0.95;0.50;;;;;;;;;;6271854;22;20313;-49
2021/05/26 11:13:22;;;;;;;0.93;0.50;;;;;;;;;;6244508;22;20008;-50
2021/05/26 11:15:48;;;;;;;1.17;0.55;;;;;;;;;;6245198;22;20006;-49
2021/05/26 11:18:18;;;;;;;0.60;0.40;;;;;;;;;;6244232;22;19999;-48
2021/05/26 11:20:44;;;;;;;0.82;0.50;;;;;;;;;;6271682;22;20010;-54
2021/05/26 11:23:14;;;;;;;1.10;0.50;;;;;;;;;;6272054;22;20018;-50
2021/05/26 11:25:49;;;;;;;1.60;0.55;;;;;;;;;;6272285;22;20147;-52
2021/05/26 11:28:25;;;;;;;0.95;0.50;;;;;;;;;;6272550;22;20000;-51
2021/05/26 11:30:58;;;;;;;1.30;0.70;;;;;;;;;;6272140;22;19999;-48
2021/05/26 11:33:24;;;;;;;0.77;0.50;;;;;;;;;;6243890;22;20404;-50
2021/05/26 11:35:51;;;;;;;2.03;0.60;;;;;;;;;;6272404;22;20007;-48
2021/05/26 11:38:23;;;;;;;0.90;0.60;;;;;;;;;;6244444;22;20003;-56
2021/05/26 11:40:50;;;;;;;1.15;0.57;;;;;;;;;;6271883;22;20000;-51
2021/05/26 11:43:18;;;;;;;0.65;0.50;;;;;;;;;;6272425;22;20026;-50
2021/05/26 11:45:44;;;;;;;0.80;0.50;;;;;;;;;;6244181;22;20016;-48
2021/05/26 11:48:11;;;;;;;0.82;0.50;;;;;;;;;;6273335;22;20061;-49
2021/05/26 11:50:39;;;;;;;1.05;0.60;;;;;;;;;;6245795;22;20324;-50
2021/05/26 11:53:06;;;;;;;0.73;0.47;;;;;;;;;;6245018;22;20079;-50
2021/05/26 11:55:33;;;;;;;0.80;0.55;;;;;;;;;;6273541;22;20412;-50
2021/05/26 11:57:59;;;;;;;1.17;0.55;;;;;;;;;;6273134;22;20010;-50
2021/05/26 12:00:25;;;;;;;0.80;0.50;;;;;;;;;;6272939;22;20404;-49
2021/05/26 12:02:56;;;;;;;0.95;0.55;;;;;;;;;;6273017;22;20364;-49
2021/05/26 12:05:41;;;;;;;0.68;0.40;;;;;;;;;;6272417;22;19999;-52
2021/05/26 12:08:13;;;;;;;1.50;0.60;;;;;;;;;;6272104;22;20003;-51
2021/05/26 12:10:40;;;;;;;1.13;0.73;;;;;;;;;;6245306;22;20000;-48
2021/05/26 12:13:06;;;;;;;1.42;0.40;;;;;;;;;;6272502;22;20000;-53
2021/05/26 12:15:33;;;;;;;0.95;0.60;;;;;;;;;;6272242;22;20068;-50
2021/05/26 12:17:59;;;;;;;1.00;0.70;;;;;;;;;;6272494;22;20035;-50
2021/05/26 12:20:25;;;;;;;1.00;0.57;;;;;;;;;;6245509;22;20003;-49
2021/05/26 12:22:53;;;;;;;1.10;0.70;;;;;;;;;;6272887;22;20294;-53
2021/05/26 12:25:19;;;;;;;;;;;;;;;;;;6243453;22;20273;-47
2021/05/26 12:27:47;;;;;;;1.07;0.50;;;;;;;;;;6271691;22;20320;-47
2021/05/26 12:30:19;;;;;;;0.90;0.50;;;;;;;;;;6244655;22;20230;-47
2021/05/26 12:32:45;;;;;;;0.70;0.50;;;;;;;;;;6272733;22;20081;-47
2021/05/26 12:35:19;;;;;;;2.10;0.52;;;;;;;;;;6244824;22;20336;-47
2021/05/26 12:37:47;;;;;;;0.98;0.60;;;;;;;;;;6245049;22;20401;-47
2021/05/26 12:40:30;;;;;;;0.90;0.52;;;;;;;;;;6273329;22;20361;-52
2021/05/26 12:42:58;;;;;;;1.20;0.60;;;;;;;;;;6272892;22;20066;-51
2021/05/26 12:45:31;;;;;;;0.55;0.40;;;;;;;;;;6272014;22;20483;-51
2021/05/26 12:47:59;;;;;;;1.00;0.70;;;;;;;;;;6245031;22;20000;-49
2021/05/26 12:50:27;;;;;;;1.20;0.60;;;;;;;;;;6244706;22;20011;-52
2021/05/26 12:52:53;;;;;;;1.95;0.60;;;;;;;;;;6272493;22;20023;-49
2021/05/26 12:55:23;;;;;;;1.45;0.50;;;;;;;;;;6244686;22;20512;-54
2021/05/26 12:57:50;;;;;;;1.00;0.50;;;;;;;;;;6245756;22;20015;-48
2021/05/26 13:00:21;;;;;;;1.50;0.80;;;;;;;;;;6272144;22;20366;-52
2021/05/26 13:02:48;;;;;;;0.90;0.50;;;;;;;;;;6272256;22;20079;-51
2021/05/26 13:05:29;;;;;;;1.02;0.60;;;;;;;;;;6272037;22;20000;-47
2021/05/26 13:08:06;;;;;;;1.55;0.50;;;;;;;;;;6244946;22;20103;-48
2021/05/26 13:10:35;;;;;;;1.05;0.55;;;;;;;;;;6271549;22;20003;-49
2021/05/26 13:13:19;;;;;;;1.00;0.60;;;;;;;;;;6245603;22;20026;-52
2021/05/26 13:15:54;;;;;;;0.90;0.60;;;;;;;;;;6244661;22;20011;-51
2021/05/26 13:18:22;;;;;;;1.00;0.68;;;;;;;;;;6272132;22;20359;-46
2021/05/26 13:20:49;;;;;;;1.52;0.52;;;;;;;;;;6272189;22;20034;-50
2021/05/26 13:23:15;;;;;;;1.02;0.60;;;;;;;;;;6244096;22;20037;-49
2021/05/26 13:25:43;;;;;;;0.70;0.50;;;;;;;;;;6219488;22;20049;-51
2021/05/26 13:28:10;;;;;;;;;;;;;;;;;;6245167;22;20003;-50
2021/05/26 13:30:36;;;;;;;1.55;0.60;;;;;;;;;;6271507;22;19953;-48
2021/05/26 13:33:03;;;;;;;1.88;0.70;;;;;;;;;;6244554;22;20073;-53
2021/05/26 13:35:30;;;;;;;0.70;0.50;;;;;;;;;;6272395;22;20012;-47
2021/05/26 13:37:56;;;;;;;0.88;0.60;;;;;;;;;;6245135;22;20372;-47
2021/05/26 13:40:25;;;;;;;1.75;0.60;;;;;;;;;;6244706;22;20073;-51
2021/05/26 13:42:52;;;;;;;0.70;0.57;;;;;;;;;;6244459;22;20012;-48
2021/05/26 13:45:18;;;;;;;1.10;0.50;;;;;;;;;;6271518;22;20469;-52
2021/05/26 13:47:44;;;;;;;0.70;0.50;;;;;;;;;;6272029;22;20015;-51
2021/05/26 13:50:15;;;;;;;1.43;0.60;;;;;;;;;;6272380;22;20027;-47
2021/05/26 13:52:42;;;;;;;1.05;0.60;;;;;;;;;;6271870;22;20215;-50
2021/05/26 13:55:08;;;;;;;0.93;0.52;;;;;;;;;;6244663;22;20048;-51
2021/05/26 13:57:34;;;;;;;0.80;0.50;;;;;;;;;;6272202;22;20401;-46
2021/05/26 14:00:00;;;;;;;1.52;0.57;;;;;;;;;;6272079;22;20324;-45
2021/05/26 14:02:26;;;;;;;1.73;0.70;;;;;;;;;;6244129;22;20014;-43
2021/05/26 14:04:52;;;;;;;0.98;0.60;;;;;;;;;;6243620;22;20370;-47
2021/05/26 14:07:19;;;;;;;0.93;0.50;;;;;;;;;;6271527;22;19999;-48
2021/05/26 14:09:45;;;;;;;2.38;0.93;;;;;;;;;;6271494;22;20076;-48
2021/05/26 14:12:11;;;;;;;1.25;0.60;;;;;;;;;;6271619;22;20011;-52
2021/05/26 14:14:38;;;;;;;1.10;0.70;;;;;;;;;;6271534;22;20075;-47
2021/05/26 14:17:04;;;;;;;;;;;;;;;;;;6245261;22;20048;-50
2021/05/26 14:19:30;;;;;;;1.20;0.70;;;;;;;;;;6244140;22;19944;-52
2021/05/26 14:21:56;;;;;;;1.20;0.55;;;;;;;;;;6270333;22;20008;-48
2021/05/26 14:24:23;;;;;;;1.00;0.60;;;;;;;;;;6271453;22;19996;-49
2021/05/26 14:26:49;;;;;;;1.13;0.70;;;;;;;;;;6270311;22;20070;-49
2021/05/26 14:29:16;;;;;;;1.02;0.73;;;;;;;;;;6271281;22;20000;-49
2021/05/26 14:31:42;;;;;;;4.50;0.83;;;;;;;;;;6244170;22;20004;-52
2021/05/26 14:34:08;;;;;;;1.08;0.50;;;;;;;;;;6270328;22;20261;-52
2021/05/26 14:36:36;;;;;;;1.55;0.70;;;;;;;;;;6270055;22;20421;-48
2021/05/26 14:39:05;;;;;;;1.63;0.77;;;;;;;;;;6270748;22;19996;-47
2021/05/26 14:41:31;;;;;;;1.00;0.60;;;;;;;;;;6244150;22;20399;-47
2021/05/26 14:44:02;;;;;;;1.75;0.70;;;;;;;;;;6272321;22;20007;-44
2021/05/26 14:46:28;;;;;;;1.77;0.80;;;;;;;;;;6271582;22;20012;-46
2021/05/26 14:48:57;;;;;;;1.23;0.70;;;;;;;;;;6271184;22;20447;-44
2021/05/26 14:51:23;;;;;;;1.02;0.60;;;;;;;;;;6220946;22;20006;-43
2021/05/26 14:53:49;;;;;;;1.25;0.70;;;;;;;;;;6272123;22;20078;-43
2021/05/26 14:56:15;;;;;;;1.40;0.70;;;;;;;;;;6244597;22;20003;-46
2021/05/26 14:58:42;;;;;;;2.20;0.70;;;;;;;;;;6272867;22;20010;-43
2021/05/26 15:01:09;;;;;;;2.00;1.10;;;;;;;;;;6245356;22;20381;-44
2021/05/26 15:03:35;;;;;;;2.15;0.73;;;;;;;;;;6270836;22;20475;-43
2021/05/26 15:06:01;;;;;;;1.10;0.70;;;;;;;;;;6245569;22;20003;-43
2021/05/26 15:08:27;;;;;;;1.52;0.65;;;;;;;;;;6244733;22;20000;-43
2021/05/26 15:11:03;;;;;;;1.10;0.60;;;;;;;;;;6271689;22;20072;-44
2021/05/26 15:13:31;;;;;;;1.10;0.60;;;;;;;;;;6272501;22;20114;-44
2021/05/26 15:15:57;;;;;;;1.10;0.60;;;;;;;;;;6272026;22;20033;-45
2021/05/26 15:18:24;;;;;;;1.58;0.98;;;;;;;;;;6271452;22;20025;-51
2021/05/26 15:20:50;;;;;;;1.00;0.60;;;;;;;;;;6272409;22;20038;-51
2021/05/26 15:23:18;;;;;;;1.57;0.80;;;;;;;;;;6273374;22;20078;-46
2021/05/26 15:25:44;;;;;;;1.30;0.70;;;;;;;;;;6273396;22;20214;-47
2021/05/26 15:28:13;;;;;;;1.00;0.67;;;;;;;;;;6246097;22;20006;-46
2021/05/26 15:30:41;;;;;;;1.42;0.70;;;;;;;;;;6246144;22;20229;-48
2021/05/26 15:33:07;;;;;;;2.20;0.70;;;;;;;;;;6274157;22;20362;-47
2021/05/26 15:35:34;;;;;;;1.23;0.60;;;;;;;;;;6246157;22;20003;-47
2021/05/26 15:38:01;;;;;;;1.27;0.70;;;;;;;;;;6246197;22;20004;-47
2021/05/26 15:40:27;;;;;;;1.52;0.70;;;;;;;;;;6273340;22;20082;-50
2021/05/26 15:42:53;;;;;;;1.65;0.73;;;;;;;;;;6273044;22;20382;-52
2021/05/26 15:45:19;;;;;;;1.25;0.77;;;;;;;;;;6272618;22;20099;-51
2021/05/26 15:47:45;;;;;;;1.13;0.60;;;;;;;;;;6272981;22;20004;-48
2021/05/26 15:50:13;;;;;;;1.33;0.70;;;;;;;;;;6273252;22;19999;-50
2021/05/26 15:52:39;;;;;;;1.23;0.65;;;;;;;;;;6220910;22;20030;-51
2021/05/26 15:55:06;;;;;;;1.17;0.60;;;;;;;;;;6272692;22;20023;-55
2021/05/26 15:57:32;;;;;;;;;;;;;;;;;;6246182;22;20021;-52
2021/05/26 16:00:04;;;;;;;1.95;0.60;;;;;;;;;;6273230;22;19978;-48
2021/05/26 16:02:30;;;;;;;2.72;0.77;;;;;;;;;;6271918;22;20007;-49
2021/05/26 16:04:56;;;;;;;4.20;0.70;;;;;;;;;;6273137;22;20080;-51
2021/05/26 16:07:22;;;;;;;0.90;0.60;;;;;;;;;;6272326;22;19995;-53
2021/05/26 16:09:48;;;;;;;1.30;0.60;;;;;;;;;;6272747;22;20010;-52
2021/05/26 16:12:16;;;;;;;1.83;0.80;;;;;;;;;;6272287;22;20004;-52
2021/05/26 16:14:43;;;;;;;1.00;0.70;;;;;;;;;;6245616;22;19999;-51
2021/05/26 16:17:09;;;;;;;1.58;0.82;;;;;;;;;;6273090;22;20078;-49
2021/05/26 16:19:35;;;;;;;2.78;1.02;;;;;;;;;;6271471;22;20004;-52
2021/05/26 16:22:01;;;;;;;1.93;1.20;;;;;;;;;;6272916;22;20408;-53
2021/05/26 16:24:29;;;;;;;4.20;0.95;;;;;;;;;;6272927;22;20280;-50
2021/05/26 16:26:55;;;;;;;;;;;;;;;;;;6245277;22;20004;-53
2021/05/26 16:29:21;;;;;;;3.63;1.50;;;;;;;;;;6269408;22;19899;-54
2021/05/26 16:31:48;;;;;;;3.67;1.10;;;;;;;;;;6271859;22;20073;-51
2021/05/26 16:34:14;;;;;;;5.28;1.55;;;;;;;;;;6244354;22;20004;-54
2021/05/26 16:36:41;;;;;;;3.47;1.10;;;;;;;;;;6269518;22;20018;-52
2021/05/26 16:39:07;;;;;;;1.85;0.90;;;;;;;;;;6272071;22;20274;-50
2021/05/26 16:41:37;;;;;;;2.47;1.13;;;;;;;;;;6245668;22;20278;-52
2021/05/26 16:44:04;;;;;;;4.40;1.30;;;;;;;;;;6272352;22;20030;-55
2021/05/26 16:46:32;;;;;;;2.03;0.90;;;;;;;;;;6272617;22;19999;-54
2021/05/26 19:36:01;;;;;;;8.40;2.80;;;;;;;;;;6273027;22;20411;-51
2021/05/26 19:38:28;;;;;;;10.23;3.22;;;;;;;;;;6273940;22;20094;-53
2021/05/26 19:40:54;;;;;;;5.50;2.95;;;;;;;;;;6273833;22;20332;-53
2021/05/26 19:43:21;;;;;;;6.88;2.58;;;;;;;;;;6246628;22;20069;-52
2021/05/26 19:45:48;;;;;;;7.18;2.80;;;;;;;;;;6273710;22;19995;-52
2021/05/26 19:48:16;;;;;;;3.92;2.40;;;;;;;;;;6215900;23;20060;-51
2021/05/26 19:50:42;;;;;;;4.50;2.90;;;;;;;;;;6216378;23;20320;-54
2021/05/26 19:53:09;;;;;;;7.03;2.70;;;;;;;;;;6243360;23;20083;-54
2021/05/26 19:55:37;;;;;;;5.68;2.47;;;;;;;;;;6243585;23;20000;-53
2021/05/26 19:58:03;;;;;;;5.05;2.28;;;;;;;;;;6243788;23;20042;-50
2021/05/26 20:00:29;;;;;;;6.40;2.53;;;;;;;;;;6243381;23;20028;-52
2021/05/26 20:02:56;;;;;;;5.97;2.63;;;;;;;;;;6243344;23;20083;-52
2021/05/26 20:05:22;;;;;;;4.93;2.20;;;;;;;;;;6216476;23;20487;-50
2021/05/26 20:07:48;;;;;;;24.92;2.53;;;;;;;;;;6216236;23;20655;-51
2021/05/26 20:10:15;;;;;;;3.72;2.25;;;;;;;;;;6243495;23;20370;-48
2021/05/26 20:12:42;;;;;;;3.65;1.85;;;;;;;;;;6216089;23;20058;-54
2021/05/26 20:15:09;;;;;;;5.40;2.35;;;;;;;;;;6215468;23;20000;-52
2021/05/26 20:17:35;;;;;;;4.60;2.50;;;;;;;;;;6242884;23;20065;-52
2021/05/26 20:20:01;;;;;;;3.67;1.80;;;;;;;;;;6242901;23;20080;-51
2021/05/26 20:22:28;;;;;;;4.53;2.15;;;;;;;;;;6215447;23;20267;-55
2021/05/26 20:24:55;;;;;;;4.28;2.20;;;;;;;;;;6242895;23;20294;-54
2021/05/26 20:27:21;;;;;;;3.50;2.00;;;;;;;;;;6215585;23;20027;-53
2021/05/26 20:29:47;;;;;;;7.32;2.20;;;;;;;;;;6215816;23;20067;-53
2021/05/26 20:32:14;;;;;;;4.38;2.08;;;;;;;;;;6215299;23;20012;-52
2021/05/26 20:34:40;;;;;;;4.43;1.80;;;;;;;;;;6223727;23;20012;-51
2021/05/26 20:37:06;;;;;;;3.97;2.28;;;;;;;;;;6242605;22;20337;-54
2021/05/26 20:39:32;;;;;;;5.32;2.30;;;;;;;;;;6266724;22;20000;-54
2021/05/26 20:41:58;;;;;;;5.07;2.20;;;;;;;;;;6266369;22;20012;-52
2021/05/26 20:44:24;;;;;;;4.20;2.22;;;;;;;;;;6242502;22;20091;-50
2021/05/26 20:46:51;;;;;;;3.97;1.85;;;;;;;;;;6242473;22;20393;-50
2021/05/26 20:49:17;;;;;;;7.45;2.38;;;;;;;;;;6242718;22;20020;-54
2021/05/26 20:51:43;;;;;;;5.50;2.10;;;;;;;;;;6242280;22;20022;-52
2021/05/26 20:54:09;;;;;;;3.85;1.88;;;;;;;;;;6266600;22;20000;-54
2021/05/26 20:56:35;;;;;;;5.05;2.05;;;;;;;;;;6242119;22;19996;-53
2021/05/26 20:59:01;;;;;;;3.33;1.75;;;;;;;;;;6266260;22;20034;-51
2021/05/26 21:01:28;;;;;;;7.63;2.08;;;;;;;;;;6240519;23;20023;-53
2021/05/26 21:03:54;;;;;;;3.97;1.83;;;;;;;;;;6242078;22;20007;-51
2021/05/26 21:06:20;;;;;;;4.30;1.55;;;;;;;;;;6242583;22;20047;-50
2021/05/26 21:08:46;;;;;;;4.32;2.10;;;;;;;;;;6242131;22;20428;-52
2021/05/26 21:11:13;;;;;;;2.90;1.60;;;;;;;;;;6266123;22;20083;-52
2021/05/26 21:13:39;;;;;;;3.33;1.83;;;;;;;;;;6266155;22;20000;-51
2021/05/26 21:16:05;;;;;;;3.15;1.63;;;;;;;;;;6265674;22;20109;-52
2021/05/26 21:18:31;;;;;;;4.55;1.55;;;;;;;;;;6242117;22;20011;-49
2021/05/26 21:20:58;;;;;;;3.03;1.52;;;;;;;;;;6242339;22;20317;-49
2021/05/26 21:23:26;;;;;;;3.97;1.70;;;;;;;;;;6266398;22;20019;-51
2021/05/26 21:25:53;;;;;;;2.72;1.58;;;;;;;;;;6266137;22;20084;-55
2021/05/26 21:28:19;;;;;;;;;;;;;;;;;;6266645;22;20396;-52
2021/05/26 21:30:46;;;;;;;2.95;1.60;;;;;;;;;;6242416;22;19948;-51
2021/05/26 21:33:12;;;;;;;4.65;1.75;;;;;;;;;;6242467;22;20061;-52
2021/05/26 21:35:38;;;;;;;2.55;1.50;;;;;;;;;;6242081;22;20054;-49
2021/05/26 21:38:04;;;;;;;3.97;1.60;;;;;;;;;;6242342;22;20031;-52
2021/05/26 21:40:32;;;;;;;3.17;1.48;;;;;;;;;;6242316;22;19996;-51
2021/05/26 21:42:58;;;;;;;2.28;1.50;;;;;;;;;;6242013;23;20038;-59
2021/05/26 21:45:27;;;;;;;3.45;1.60;;;;;;;;;;6241714;22;20003;-57
2021/05/26 21:47:53;;;;;;;6.57;2.00;;;;;;;;;;6241844;22;19996;-52
2021/05/26 21:50:19;;;;;;;2.88;1.40;;;;;;;;;;6241632;22;20364;-48
2021/05/26 21:52:46;;;;;;;3.25;1.50;;;;;;;;;;6241023;22;20004;-52
2021/05/26 21:55:13;;;;;;;3.55;1.63;;;;;;;;;;6264902;22;20000;-52
2021/05/26 21:57:42;;;;;;;2.38;1.48;;;;;;;;;;6239175;23;20004;-53
2021/05/26 22:00:11;;;;;;;2.60;1.55;;;;;;;;;;6241930;22;20061;-52
2021/05/26 22:02:37;;;;;;;2.38;1.52;;;;;;;;;;6242012;22;20008;-52
2021/05/26 22:05:03;;;;;;;2.55;1.52;;;;;;;;;;6241856;22;20042;-54
2021/05/26 22:07:30;;;;;;;2.28;1.60;;;;;;;;;;6265638;22;20008;-50
2021/05/26 22:10:00;;;;;;;3.15;1.65;;;;;;;;;;6242276;22;20287;-52
2021/05/26 22:12:30;;;;;;;2.63;1.50;;;;;;;;;;6241853;22;20008;-50
2021/05/26 22:14:56;;;;;;;2.83;1.42;;;;;;;;;;6241919;22;20007;-53
2021/05/26 22:17:23;;;;;;;3.10;1.48;;;;;;;;;;6241826;22;20294;-52
2021/05/26 22:19:51;;;;;;;2.78;1.48;;;;;;;;;;6266013;22;20011;-50
2021/05/26 22:22:20;;;;;;;2.67;1.30;;;;;;;;;;6265324;22;20012;-49
2021/05/26 22:24:48;;;;;;;2.15;1.42;;;;;;;;;;6241875;22;20000;-52
2021/05/26 22:27:15;;;;;;;3.97;1.30;;;;;;;;;;6241956;22;20091;-51
2021/05/26 22:29:41;;;;;;;3.30;1.43;;;;;;;;;;6242081;22;19996;-54
2021/05/26 22:32:09;;;;;;;2.67;1.30;;;;;;;;;;6267781;22;20347;-52
2021/05/26 22:34:40;;;;;;;2.45;1.50;;;;;;;;;;6267286;22;20043;-48
2021/05/26 22:37:06;;;;;;;2.10;1.40;;;;;;;;;;6243702;22;20008;-51
2021/05/26 22:39:35;;;;;;;2.47;1.70;;;;;;;;;;6243633;22;19996;-49
2021/05/26 22:42:03;;;;;;;2.92;1.50;;;;;;;;;;6266905;22;20023;-51
2021/05/26 22:44:38;;;;;;;2.88;1.50;;;;;;;;;;6243242;22;20067;-51
2021/05/26 22:47:05;;;;;;;5.82;2.03;;;;;;;;;;6242928;22;20079;-55
2021/05/26 22:49:31;;;;;;;3.30;1.70;;;;;;;;;;6266775;22;20468;-52
2021/05/26 22:52:00;;;;;;;4.60;1.60;;;;;;;;;;6266890;22;21444;-52
2021/05/26 22:54:28;;;;;;;2.42;1.42;;;;;;;;;;6267459;22;20200;-50
2021/05/26 22:59:58;;;;;;;3.00;1.58;;;;;;;;;;6241644;23;20377;-52
2021/05/26 23:02:24;;;;;;;3.42;1.60;;;;;;;;;;6240139;22;20016;-51
2021/05/26 23:04:50;;;;;;;2.30;1.33;;;;;;;;;;6241178;22;20329;-53
2021/05/26 23:07:16;;;;;;;3.92;1.83;;;;;;;;;;6241041;22;20301;-51
2021/05/26 23:09:42;;;;;;;3.42;1.58;;;;;;;;;;6241323;22;20000;-48
2021/05/26 23:12:09;;;;;;;2.45;1.60;;;;;;;;;;6241622;22;20016;-50
2021/05/26 23:14:35;;;;;;;2.97;1.70;;;;;;;;;;6243029;22;20003;-53
2021/05/26 23:17:01;;;;;;;3.15;1.30;;;;;;;;;;6264666;22;20004;-50
2021/05/26 23:19:29;;;;;;;2.92;1.83;;;;;;;;;;6241016;22;20000;-51
2021/05/26 23:21:55;;;;;;;3.00;1.77;;;;;;;;;;6264820;22;20016;-52
2021/05/26 23:24:24;;;;;;;4.38;1.80;;;;;;;;;;6241518;22;20066;-52
2021/05/26 23:26:52;;;;;;;5.13;1.77;;;;;;;;;;6265088;22;20085;-51
2021/05/26 23:29:21;;;;;;;3.38;1.70;;;;;;;;;;6265658;22;20086;-53
2021/05/26 23:31:49;;;;;;;2.30;1.50;;;;;;;;;;6242416;22;20023;-54
2021/05/26 23:34:18;;;;;;;7.68;1.92;;;;;;;;;;6240920;22;20016;-49
2021/05/26 23:36:44;;;;;;;4.10;1.80;;;;;;;;;;6264729;22;20005;-52
2021/05/26 23:39:13;;;;;;;3.78;1.90;;;;;;;;;;6241182;22;19996;-52
2021/05/26 23:41:39;;;;;;;4.30;2.05;;;;;;;;;;6240961;22;20000;-50
2021/05/26 23:44:06;;;;;;;2.78;1.67;;;;;;;;;;6265953;22;20008;-50
2021/05/26 23:46:32;;;;;;;3.72;1.60;;;;;;;;;;6241935;22;20000;-49
2021/05/26 23:49:03;;;;;;;2.85;1.70;;;;;;;;;;6242883;22;20023;-50
2021/05/26 23:51:29;;;;;;;3.40;1.65;;;;;;;;;;6266686;22;20328;-50
2021/05/26 23:53:55;;;;;;;2.97;1.65;;;;;;;;;;6266581;22;20000;-50
2021/05/26 23:56:21;;;;;;;3.20;1.88;;;;;;;;;;6243176;22;19993;-53
2021/05/26 23:58:50;;;;;;;2.30;1.50;;;;;;;;;;6243511;22;19996;-53
